This is the latest recevied weather packets stored in our database for station/object W7TTE. If no packets are shown the sender has not sent any weather packets the latest 1 day(s).
| Time | Temp. | Humidity | Pressure | Rain* | Wind** | Luminosity | Snow |
|---|---|---|---|---|---|---|---|
| 1778017582 | 25.56° C | 27% | 1012.8 hPa | 0 mm | 2.24 m/s, 266° | 726 W/m² | - |
| 1778017279 | 25.56° C | 27% | 1012.9 hPa | 0 mm | 2.24 m/s, 116° | 740 W/m² | - |
| 1778016977 | 25° C | 26% | 1012.7 hPa | 0 mm | 2.24 m/s, 198° | 784 W/m² | - |
| 1778016673 | 25° C | 27% | 1012.8 hPa | 0 mm | 2.24 m/s, 186° | 824 W/m² | - |
| 1778016369 | 25° C | 29% | 1012.8 hPa | 0 mm | 1.79 m/s, 203° | 206 W/m² | - |
| 1778016068 | 25.56° C | 28% | 1013.1 hPa | 0 mm | 4.02 m/s, 156° | 804 W/m² | - |
| 1778015764 | 25.56° C | 28% | 1013 hPa | 0 mm | 3.58 m/s, 181° | 784 W/m² | - |
| 1778015461 | 25° C | 30% | 1013.1 hPa | 0 mm | 2.68 m/s, 147° | 259 W/m² | - |
| 1778015157 | 25° C | 29% | 1013.1 hPa | 0 mm | 2.24 m/s, 223° | 486 W/m² | - |
| 1778014855 | 24.44° C | 30% | 1013.4 hPa | 0 mm | 2.24 m/s, 156° | 314 W/m² | - |
| 1778014552 | 24.44° C | 29% | 1013.5 hPa | 0 mm | 3.13 m/s, 203° | 230 W/m² | - |
| 1778014250 | 25° C | 30% | 1013.6 hPa | 0 mm | 2.24 m/s, 134° | 866 W/m² | - |
| 1778013947 | 25° C | 30% | 1013.5 hPa | 0 mm | 2.68 m/s, 156° | 848 W/m² | - |
| 1778013644 | 25.56° C | 29% | 1013.5 hPa | 0 mm | 2.68 m/s, 219° | 172 W/m² | - |
| 1778013341 | 25.56° C | 29% | 1013.8 hPa | 0 mm | 3.58 m/s, 179° | 814 W/m² | - |
| 1778013038 | 25.56° C | 29% | 1013.4 hPa | 0 mm | 0.89 m/s, 190° | 855 W/m² | - |
| 1778012734 | 25.56° C | 29% | 1013.4 hPa | 0 mm | 1.79 m/s, 248° | 928 W/m² | - |
| 1778012430 | 25° C | 30% | 1013.6 hPa | 0 mm | 2.68 m/s, 134° | 881 W/m² | - |
| 1778012127 | 24.44° C | 30% | 1013.6 hPa | 0 mm | 3.13 m/s, 189° | 911 W/m² | - |
| 1778011825 | 25° C | 30% | 1013.5 hPa | 0 mm | 0.89 m/s, 277° | 239 W/m² | - |
| 1778011522 | 25° C | 30% | 1013.6 hPa | 0 mm | 0.89 m/s, 200° | 249 W/m² | - |
| 1778011219 | 24.44° C | 30% | 1013.6 hPa | 0 mm | 1.79 m/s, 302° | 959 W/m² | - |
| 1778010915 | 25° C | 31% | 1013.8 hPa | 0 mm | 2.24 m/s, 192° | 834 W/m² | - |
| 1778010613 | 25° C | 30% | 1013.7 hPa | 0 mm | 0.89 m/s, 211° | 889 W/m² | - |
| 1778010310 | 25° C | 30% | 1014 hPa | 0 mm | 1.34 m/s, 14° | 842 W/m² | - |
* Rain latest hour (hover to see other rain measurements)
** Current wind speed in m/s (hover to see current wind gust speed)